sensor_id;sensor_type;location;lat;lon;timestamp;pressure;altitude;pressure_sealevel;temperature;humidity
50592;BME280;36548;50.506;30.834;2023-02-21T00:00:04;97756.22;;;6.10;70.99
50592;BME280;36548;50.506;30.834;2023-02-21T00:01:37;97746.90;;;6.25;70.85
50592;BME280;36548;50.506;30.834;2023-02-21T00:03:05;97752.73;;;6.09;70.47
50592;BME280;36548;50.506;30.834;2023-02-21T00:04:32;97738.07;;;6.25;70.74
50592;BME280;36548;50.506;30.834;2023-02-21T00:06:00;97729.31;;;6.13;70.75
50592;BME280;36548;50.506;30.834;2023-02-21T00:07:33;97728.91;;;6.48;70.93
50592;BME280;36548;50.506;30.834;2023-02-21T00:09:00;97730.81;;;6.37;70.28
50592;BME280;36548;50.506;30.834;2023-02-21T00:10:28;97727.00;;;6.29;70.20
50592;BME280;36548;50.506;30.834;2023-02-21T00:11:55;97724.06;;;6.33;69.98
50592;BME280;36548;50.506;30.834;2023-02-21T00:13:24;97717.94;;;6.42;70.21
50592;BME280;36548;50.506;30.834;2023-02-21T00:14:57;97707.45;;;6.50;69.99
50592;BME280;36548;50.506;30.834;2023-02-21T00:16:26;97707.70;;;6.37;69.91
50592;BME280;36548;50.506;30.834;2023-02-21T00:17:55;97701.13;;;6.10;70.56
50592;BME280;36548;50.506;30.834;2023-02-21T00:19:24;97693.44;;;6.17;71.40
50592;BME280;36548;50.506;30.834;2023-02-21T00:20:52;97697.48;;;6.11;71.72
50592;BME280;36548;50.506;30.834;2023-02-21T00:22:19;97693.55;;;6.06;71.88
50592;BME280;36548;50.506;30.834;2023-02-21T00:23:47;97682.16;;;6.04;71.95
50592;BME280;36548;50.506;30.834;2023-02-21T00:25:14;97687.49;;;6.04;71.85
50592;BME280;36548;50.506;30.834;2023-02-21T00:26:42;97688.80;;;6.09;72.01
50592;BME280;36548;50.506;30.834;2023-02-21T00:28:11;97689.39;;;6.23;72.07
50592;BME280;36548;50.506;30.834;2023-02-21T00:29:39;97688.88;;;6.29;71.23
50592;BME280;36548;50.506;30.834;2023-02-21T00:31:08;97689.56;;;6.31;71.52
50592;BME280;36548;50.506;30.834;2023-02-21T00:32:37;97688.98;;;6.27;71.38
50592;BME280;36548;50.506;30.834;2023-02-21T00:34:04;97699.28;;;6.42;71.15
50592;BME280;36548;50.506;30.834;2023-02-21T00:35:31;97699.56;;;6.39;71.01
50592;BME280;36548;50.506;30.834;2023-02-21T00:36:59;97698.75;;;6.58;71.13
50592;BME280;36548;50.506;30.834;2023-02-21T00:38:26;97697.66;;;6.70;70.63
50592;BME280;36548;50.506;30.834;2023-02-21T00:39:54;97692.75;;;6.65;70.18
50592;BME280;36548;50.506;30.834;2023-02-21T00:41:22;97701.88;;;6.73;70.16
50592;BME280;36548;50.506;30.834;2023-02-21T00:42:56;97674.11;;;6.95;70.13
50592;BME280;36548;50.506;30.834;2023-02-21T00:44:24;97683.95;;;6.85;69.77
50592;BME280;36548;50.506;30.834;2023-02-21T00:45:51;97679.02;;;6.90;69.62
50592;BME280;36548;50.506;30.834;2023-02-21T00:47:18;97671.59;;;6.93;69.67
50592;BME280;36548;50.506;30.834;2023-02-21T00:48:46;97679.16;;;6.88;69.45
50592;BME280;36548;50.506;30.834;2023-02-21T00:50:14;97664.40;;;6.64;69.90
50592;BME280;36548;50.506;30.834;2023-02-21T00:51:42;97675.19;;;6.53;70.78
50592;BME280;36548;50.506;30.834;2023-02-21T00:53:15;97652.43;;;6.39;72.03
50592;BME280;36548;50.506;30.834;2023-02-21T00:54:42;97660.09;;;6.23;72.58
50592;BME280;36548;50.506;30.834;2023-02-21T00:56:10;97665.84;;;6.18;72.83
50592;BME280;36548;50.506;30.834;2023-02-21T00:57:38;97653.77;;;6.14;73.20
50592;BME280;36548;50.506;30.834;2023-02-21T00:59:06;97649.72;;;6.20;73.03
50592;BME280;36548;50.506;30.834;2023-02-21T01:00:34;97655.07;;;6.29;72.86
50592;BME280;36548;50.506;30.834;2023-02-21T01:02:02;97640.64;;;6.32;72.37
50592;BME280;36548;50.506;30.834;2023-02-21T01:03:32;97645.98;;;6.42;72.34
50592;BME280;36548;50.506;30.834;2023-02-21T01:05:00;97653.03;;;6.53;72.01
50592;BME280;36548;50.506;30.834;2023-02-21T01:06:27;97650.91;;;6.56;71.89
50592;BME280;36548;50.506;30.834;2023-02-21T01:07:56;97636.16;;;6.42;71.85
50592;BME280;36548;50.506;30.834;2023-02-21T01:09:25;97639.42;;;6.56;71.95
50592;BME280;36548;50.506;30.834;2023-02-21T01:10:52;97644.34;;;6.70;71.68
50592;BME280;36548;50.506;30.834;2023-02-21T01:12:21;97635.52;;;6.79;71.11
50592;BME280;36548;50.506;30.834;2023-02-21T01:13:48;97637.89;;;6.73;71.03
50592;BME280;36548;50.506;30.834;2023-02-21T01:15:17;97634.11;;;6.85;70.77
50592;BME280;36548;50.506;30.834;2023-02-21T01:16:45;97646.19;;;6.89;70.45
50592;BME280;36548;50.506;30.834;2023-02-21T01:18:15;97641.28;;;6.85;69.86
50592;BME280;36548;50.506;30.834;2023-02-21T01:19:44;97648.16;;;6.87;70.36
50592;BME280;36548;50.506;30.834;2023-02-21T01:21:15;97648.02;;;7.08;70.27
50592;BME280;36548;50.506;30.834;2023-02-21T01:22:45;97644.09;;;7.03;69.82
50592;BME280;36548;50.506;30.834;2023-02-21T01:24:14;97645.35;;;6.89;69.62
50592;BME280;36548;50.506;30.834;2023-02-21T01:25:43;97650.40;;;6.92;69.46
50592;BME280;36548;50.506;30.834;2023-02-21T01:27:11;97656.55;;;6.73;69.91
50592;BME280;36548;50.506;30.834;2023-02-21T01:28:38;97664.02;;;6.79;70.38
50592;BME280;36548;50.506;30.834;2023-02-21T01:30:07;97659.48;;;6.60;70.77
50592;BME280;36548;50.506;30.834;2023-02-21T01:31:41;97657.50;;;6.52;71.36
50592;BME280;36548;50.506;30.834;2023-02-21T01:33:10;97658.32;;;6.33;71.82
50592;BME280;36548;50.506;30.834;2023-02-21T01:34:38;97641.63;;;6.41;71.57
50592;BME280;36548;50.506;30.834;2023-02-21T01:36:07;97646.00;;;6.52;71.32
50592;BME280;36548;50.506;30.834;2023-02-21T01:37:35;97655.84;;;6.51;70.98
50592;BME280;36548;50.506;30.834;2023-02-21T01:39:02;97662.16;;;6.60;70.94
50592;BME280;36548;50.506;30.834;2023-02-21T01:40:30;97678.03;;;6.81;70.68
50592;BME280;36548;50.506;30.834;2023-02-21T01:41:57;97671.16;;;6.88;70.15
50592;BME280;36548;50.506;30.834;2023-02-21T01:43:26;97668.92;;;7.03;70.22
50592;BME280;36548;50.506;30.834;2023-02-21T01:46:51;97654.47;;;7.06;69.53
50592;BME280;36548;50.506;30.834;2023-02-21T01:48:20;97660.09;;;7.03;68.97
50592;BME280;36548;50.506;30.834;2023-02-21T01:49:48;97663.59;;;7.03;69.18
50592;BME280;36548;50.506;30.834;2023-02-21T01:51:18;97664.16;;;6.97;68.91
50592;BME280;36548;50.506;30.834;2023-02-21T01:52:47;97657.42;;;6.83;69.29
50592;BME280;36548;50.506;30.834;2023-02-21T01:54:17;97662.03;;;6.81;69.56
50592;BME280;36548;50.506;30.834;2023-02-21T01:55:47;97665.12;;;6.67;70.16
50592;BME280;36548;50.506;30.834;2023-02-21T01:57:16;97654.83;;;6.52;70.01
50592;BME280;36548;50.506;30.834;2023-02-21T01:58:47;97654.95;;;6.41;70.62
50592;BME280;36548;50.506;30.834;2023-02-21T02:00:20;97665.89;;;6.38;71.30
50592;BME280;36548;50.506;30.834;2023-02-21T02:01:53;97660.84;;;6.35;71.18
50592;BME280;36548;50.506;30.834;2023-02-21T02:03:24;97663.09;;;6.39;71.04
50592;BME280;36548;50.506;30.834;2023-02-21T02:04:54;97654.44;;;6.57;70.78
50592;BME280;36548;50.506;30.834;2023-02-21T02:06:23;97658.77;;;6.58;70.53
50592;BME280;36548;50.506;30.834;2023-02-21T02:07:52;97656.98;;;6.68;69.98
50592;BME280;36548;50.506;30.834;2023-02-21T02:09:21;97653.59;;;6.66;70.12
50592;BME280;36548;50.506;30.834;2023-02-21T02:10:53;97660.92;;;6.83;69.68
50592;BME280;36548;50.506;30.834;2023-02-21T02:16:45;97659.66;;;6.88;69.67
50592;BME280;36548;50.506;30.834;2023-02-21T02:18:23;97680.27;;;6.76;69.72
50592;BME280;36548;50.506;30.834;2023-02-21T02:24:49;97650.75;;;6.48;70.47
50592;BME280;36548;50.506;30.834;2023-02-21T02:38:16;97672.67;;;6.61;70.06
50592;BME280;36548;50.506;30.834;2023-02-21T02:43:59;97671.02;;;6.90;68.79
50592;BME280;36548;50.506;30.834;2023-02-21T02:47:43;97673.11;;;6.67;69.26
50592;BME280;36548;50.506;30.834;2023-02-21T02:49:02;97682.58;;;6.40;69.55
50592;BME280;36548;50.506;30.834;2023-02-21T02:50:14;97683.44;;;6.40;69.86
50592;BME280;36548;50.506;30.834;2023-02-21T02:51:24;97671.61;;;6.23;69.82
50592;BME280;36548;50.506;30.834;2023-02-21T02:52:35;97688.98;;;6.27;70.24
50592;BME280;36548;50.506;30.834;2023-02-21T02:53:47;97684.93;;;6.23;70.12
50592;BME280;36548;50.506;30.834;2023-02-21T02:55:01;97686.17;;;6.19;70.23
50592;BME280;36548;50.506;30.834;2023-02-21T02:56:14;97695.14;;;6.18;70.24
50592;BME280;36548;50.506;30.834;2023-02-21T02:57:25;97675.34;;;6.11;69.78
50592;BME280;36548;50.506;30.834;2023-02-21T02:58:39;97686.97;;;6.10;69.62
50592;BME280;36548;50.506;30.834;2023-02-21T02:59:48;97684.07;;;6.23;69.71
50592;BME280;36548;50.506;30.834;2023-02-21T03:02:29;97687.52;;;6.44;69.14
50592;BME280;36548;50.506;30.834;2023-02-21T03:03:50;97699.25;;;6.32;69.08
50592;BME280;36548;50.506;30.834;2023-02-21T03:11:13;97684.89;;;5.92;69.96
50592;BME280;36548;50.506;30.834;2023-02-21T03:13:50;97687.50;;;5.83;70.26
50592;BME280;36548;50.506;30.834;2023-02-21T03:15:12;97684.62;;;5.95;70.54
50592;BME280;36548;50.506;30.834;2023-02-21T03:16:27;97682.64;;;5.88;70.43
50592;BME280;36548;50.506;30.834;2023-02-21T03:17:39;97679.14;;;5.87;70.13
50592;BME280;36548;50.506;30.834;2023-02-21T03:19:12;97675.94;;;5.93;69.49
50592;BME280;36548;50.506;30.834;2023-02-21T03:20:22;97687.62;;;6.02;69.48
50592;BME280;36548;50.506;30.834;2023-02-21T03:21:45;97687.84;;;6.20;69.06
50592;BME280;36548;50.506;30.834;2023-02-21T03:22:55;97692.78;;;6.25;68.42
50592;BME280;36548;50.506;30.834;2023-02-21T03:24:05;97678.88;;;6.21;68.62
50592;BME280;36548;50.506;30.834;2023-02-21T03:25:20;97680.36;;;6.04;69.26
50592;BME280;36548;50.506;30.834;2023-02-21T03:26:33;97681.92;;;6.07;69.17
50592;BME280;36548;50.506;30.834;2023-02-21T03:27:50;97693.13;;;6.10;69.45
50592;BME280;36548;50.506;30.834;2023-02-21T03:29:04;97692.58;;;6.07;69.25
50592;BME280;36548;50.506;30.834;2023-02-21T03:30:14;97693.95;;;6.01;69.39
50592;BME280;36548;50.506;30.834;2023-02-21T03:31:28;97681.39;;;5.92;69.42
50592;BME280;36548;50.506;30.834;2023-02-21T03:32:44;97687.78;;;5.79;69.96
50592;BME280;36548;50.506;30.834;2023-02-21T03:33:55;97700.25;;;5.79;70.24
50592;BME280;36548;50.506;30.834;2023-02-21T03:35:05;97706.69;;;5.76;70.27
50592;BME280;36548;50.506;30.834;2023-02-21T03:36:14;97699.61;;;5.66;70.59
50592;BME280;36548;50.506;30.834;2023-02-21T03:37:33;97699.94;;;5.72;70.62
50592;BME280;36548;50.506;30.834;2023-02-21T03:38:42;97702.97;;;5.68;70.47
50592;BME280;36548;50.506;30.834;2023-02-21T03:39:52;97700.95;;;5.81;70.16
50592;BME280;36548;50.506;30.834;2023-02-21T03:41:03;97699.76;;;5.95;69.71
50592;BME280;36548;50.506;30.834;2023-02-21T03:42:19;97683.76;;;6.16;68.85
50592;BME280;36548;50.506;30.834;2023-02-21T03:43:29;97692.81;;;6.04;68.67
50592;BME280;36548;50.506;30.834;2023-02-21T03:44:40;97688.53;;;6.12;68.01
50592;BME280;36548;50.506;30.834;2023-02-21T03:45:49;97694.27;;;6.18;67.71
50592;BME280;36548;50.506;30.834;2023-02-21T03:46:59;97691.61;;;6.18;67.76
50592;BME280;36548;50.506;30.834;2023-02-21T03:48:10;97684.17;;;6.11;67.35
50592;BME280;36548;50.506;30.834;2023-02-21T03:49:22;97697.45;;;6.02;67.90
50592;BME280;36548;50.506;30.834;2023-02-21T03:50:42;97701.67;;;6.04;68.04
50592;BME280;36548;50.506;30.834;2023-02-21T03:51:52;97697.58;;;6.00;67.83
50592;BME280;36548;50.506;30.834;2023-02-21T03:53:09;97702.68;;;6.13;68.00
50592;BME280;36548;50.506;30.834;2023-02-21T03:54:20;97703.80;;;5.89;67.64
50592;BME280;36548;50.506;30.834;2023-02-21T03:55:31;97699.20;;;5.91;67.87
50592;BME280;36548;50.506;30.834;2023-02-21T03:56:43;97701.68;;;5.83;68.14
50592;BME280;36548;50.506;30.834;2023-02-21T03:57:54;97709.66;;;5.83;68.43
50592;BME280;36548;50.506;30.834;2023-02-21T03:59:04;97713.30;;;5.82;68.27
50592;BME280;36548;50.506;30.834;2023-02-21T04:00:14;97700.30;;;5.68;68.52
50592;BME280;36548;50.506;30.834;2023-02-21T04:01:22;97697.91;;;5.64;68.72
50592;BME280;36548;50.506;30.834;2023-02-21T04:02:32;97695.84;;;5.68;68.71
50592;BME280;36548;50.506;30.834;2023-02-21T04:03:41;97695.98;;;5.67;68.60
50592;BME280;36548;50.506;30.834;2023-02-21T04:04:56;97696.48;;;5.60;69.30
50592;BME280;36548;50.506;30.834;2023-02-21T04:06:06;97701.38;;;5.55;69.19
50592;BME280;36548;50.506;30.834;2023-02-21T04:07:17;97703.44;;;5.52;69.22
50592;BME280;36548;50.506;30.834;2023-02-21T04:08:28;97701.88;;;5.49;69.18
50592;BME280;36548;50.506;30.834;2023-02-21T04:09:37;97696.42;;;5.51;69.39
50592;BME280;36548;50.506;30.834;2023-02-21T04:10:49;97700.05;;;5.50;69.24
50592;BME280;36548;50.506;30.834;2023-02-21T04:12:02;97701.28;;;5.45;69.36
50592;BME280;36548;50.506;30.834;2023-02-21T04:13:11;97695.73;;;5.49;69.54
50592;BME280;36548;50.506;30.834;2023-02-21T04:14:24;97691.80;;;5.32;69.61
50592;BME280;36548;50.506;30.834;2023-02-21T04:15:39;97691.97;;;5.51;69.69
50592;BME280;36548;50.506;30.834;2023-02-21T04:16:49;97698.52;;;5.47;69.72
50592;BME280;36548;50.506;30.834;2023-02-21T04:18:00;97696.56;;;5.49;69.59
50592;BME280;36548;50.506;30.834;2023-02-21T04:19:09;97697.52;;;5.48;69.41
50592;BME280;36548;50.506;30.834;2023-02-21T04:20:19;97694.09;;;5.36;69.79
50592;BME280;36548;50.506;30.834;2023-02-21T04:21:29;97695.59;;;5.29;69.94
50592;BME280;36548;50.506;30.834;2023-02-21T04:22:40;97695.89;;;5.36;70.12
50592;BME280;36548;50.506;30.834;2023-02-21T04:23:49;97694.09;;;5.36;69.88
50592;BME280;36548;50.506;30.834;2023-02-21T04:24:57;97693.77;;;5.29;70.22
50592;BME280;36548;50.506;30.834;2023-02-21T04:26:07;97700.91;;;5.29;70.53
50592;BME280;36548;50.506;30.834;2023-02-21T04:27:17;97695.89;;;5.36;70.34
50592;BME280;36548;50.506;30.834;2023-02-21T04:28:28;97690.54;;;5.47;69.97
50592;BME280;36548;50.506;30.834;2023-02-21T04:29:39;97698.45;;;5.58;69.60
50592;BME280;36548;50.506;30.834;2023-02-21T04:30:48;97688.55;;;5.70;69.40
50592;BME280;36548;50.506;30.834;2023-02-21T04:31:58;97694.52;;;5.84;68.97
50592;BME280;36548;50.506;30.834;2023-02-21T04:33:08;97690.30;;;5.81;68.29
50592;BME280;36548;50.506;30.834;2023-02-21T04:34:17;97699.25;;;5.80;68.19
50592;BME280;36548;50.506;30.834;2023-02-21T04:35:27;97686.08;;;5.78;68.17
50592;BME280;36548;50.506;30.834;2023-02-21T04:36:39;97691.54;;;5.77;68.13
50592;BME280;36548;50.506;30.834;2023-02-21T04:37:49;97707.11;;;5.81;68.08
50592;BME280;36548;50.506;30.834;2023-02-21T04:38:59;97701.24;;;5.57;68.36
50592;BME280;36548;50.506;30.834;2023-02-21T04:40:09;97702.54;;;5.62;68.62
50592;BME280;36548;50.506;30.834;2023-02-21T04:41:20;97700.84;;;5.61;68.53
50592;BME280;36548;50.506;30.834;2023-02-21T04:42:29;97703.77;;;5.58;68.32
50592;BME280;36548;50.506;30.834;2023-02-21T04:43:41;97710.79;;;5.59;68.33
50592;BME280;36548;50.506;30.834;2023-02-21T04:44:52;97714.28;;;5.60;68.68
50592;BME280;36548;50.506;30.834;2023-02-21T04:46:07;97701.81;;;5.60;68.44
50592;BME280;36548;50.506;30.834;2023-02-21T04:47:16;97713.45;;;5.59;68.56
50592;BME280;36548;50.506;30.834;2023-02-21T04:48:31;97695.45;;;5.52;68.71
50592;BME280;36548;50.506;30.834;2023-02-21T04:49:39;97710.39;;;5.43;68.88
50592;BME280;36548;50.506;30.834;2023-02-21T04:50:51;97710.12;;;5.46;69.06
50592;BME280;36548;50.506;30.834;2023-02-21T04:52:03;97711.55;;;5.50;68.93
50592;BME280;36548;50.506;30.834;2023-02-21T04:53:13;97710.59;;;5.51;68.97
50592;BME280;36548;50.506;30.834;2023-02-21T04:54:23;97702.61;;;5.51;68.73
50592;BME280;36548;50.506;30.834;2023-02-21T04:55:33;97715.38;;;5.36;69.05
50592;BME280;36548;50.506;30.834;2023-02-21T04:56:43;97712.52;;;5.28;69.51
50592;BME280;36548;50.506;30.834;2023-02-21T04:57:52;97722.97;;;5.41;69.47
50592;BME280;36548;50.506;30.834;2023-02-21T04:59:02;97727.32;;;5.42;69.29
50592;BME280;36548;50.506;30.834;2023-02-21T05:00:15;97732.25;;;5.46;69.24
50592;BME280;36548;50.506;30.834;2023-02-21T05:01:28;97730.19;;;5.50;69.17
50592;BME280;36548;50.506;30.834;2023-02-21T05:02:45;97732.11;;;5.48;69.25
50592;BME280;36548;50.506;30.834;2023-02-21T05:03:55;97727.89;;;5.45;69.41
50592;BME280;36548;50.506;30.834;2023-02-21T05:05:05;97728.21;;;5.31;69.45
50592;BME280;36548;50.506;30.834;2023-02-21T05:06:22;97736.92;;;5.33;69.59
50592;BME280;36548;50.506;30.834;2023-02-21T05:07:32;97742.81;;;5.37;69.83
50592;BME280;36548;50.506;30.834;2023-02-21T05:08:40;97739.53;;;5.44;69.71
50592;BME280;36548;50.506;30.834;2023-02-21T05:09:50;97722.33;;;5.49;69.81
50592;BME280;36548;50.506;30.834;2023-02-21T05:11:00;97736.00;;;5.44;69.62
50592;BME280;36548;50.506;30.834;2023-02-21T05:12:10;97728.02;;;5.44;69.94
50592;BME280;36548;50.506;30.834;2023-02-21T05:13:21;97733.31;;;5.55;69.92
50592;BME280;36548;50.506;30.834;2023-02-21T05:14:32;97737.97;;;5.63;69.85
50592;BME280;36548;50.506;30.834;2023-02-21T05:15:42;97733.16;;;5.78;70.00
50592;BME280;36548;50.506;30.834;2023-02-21T05:16:57;97726.33;;;6.06;69.76
50592;BME280;36548;50.506;30.834;2023-02-21T05:18:07;97740.38;;;6.08;69.21
50592;BME280;36548;50.506;30.834;2023-02-21T05:19:19;97733.53;;;6.16;68.07
50592;BME280;36548;50.506;30.834;2023-02-21T05:20:31;97735.66;;;6.22;68.44
50592;BME280;36548;50.506;30.834;2023-02-21T05:21:40;97732.64;;;6.36;67.64
50592;BME280;36548;50.506;30.834;2023-02-21T05:22:50;97723.98;;;6.54;67.54
50592;BME280;36548;50.506;30.834;2023-02-21T05:24:00;97731.59;;;6.58;66.68
50592;BME280;36548;50.506;30.834;2023-02-21T05:25:22;97728.16;;;6.87;66.25
50592;BME280;36548;50.506;30.834;2023-02-21T05:26:35;97728.27;;;6.86;65.93
50592;BME280;36548;50.506;30.834;2023-02-21T05:27:51;97722.42;;;7.21;65.15
50592;BME280;36548;50.506;30.834;2023-02-21T05:29:02;97738.72;;;7.08;63.95
50592;BME280;36548;50.506;30.834;2023-02-21T05:30:16;97724.37;;;7.09;63.67
50592;BME280;36548;50.506;30.834;2023-02-21T05:31:26;97723.00;;;7.34;62.65
50592;BME280;36548;50.506;30.834;2023-02-21T05:32:35;97721.99;;;7.65;62.68
50592;BME280;36548;50.506;30.834;2023-02-21T05:33:45;97724.63;;;7.84;62.26
50592;BME280;36548;50.506;30.834;2023-02-21T05:34:54;97726.97;;;7.97;60.62
50592;BME280;36548;50.506;30.834;2023-02-21T05:36:04;97734.89;;;8.27;61.13
50592;BME280;36548;50.506;30.834;2023-02-21T05:37:14;97724.42;;;8.43;59.10
50592;BME280;36548;50.506;30.834;2023-02-21T05:38:24;97732.32;;;8.45;58.51
50592;BME280;36548;50.506;30.834;2023-02-21T05:39:35;97716.69;;;8.50;58.03
50592;BME280;36548;50.506;30.834;2023-02-21T05:40:47;97716.55;;;8.42;58.18
50592;BME280;36548;50.506;30.834;2023-02-21T05:42:03;97715.81;;;8.77;58.48
50592;BME280;36548;50.506;30.834;2023-02-21T05:43:11;97723.25;;;8.83;57.63
50592;BME280;36548;50.506;30.834;2023-02-21T05:44:26;97707.62;;;9.07;56.09
50592;BME280;36548;50.506;30.834;2023-02-21T05:45:35;97718.84;;;9.10;56.37
50592;BME280;36548;50.506;30.834;2023-02-21T05:46:44;97726.72;;;9.12;55.60
50592;BME280;36548;50.506;30.834;2023-02-21T05:47:53;97719.16;;;9.25;55.89
50592;BME280;36548;50.506;30.834;2023-02-21T05:49:04;97732.00;;;9.39;55.40
50592;BME280;36548;50.506;30.834;2023-02-21T05:50:14;97728.72;;;9.28;54.29
50592;BME280;36548;50.506;30.834;2023-02-21T05:51:24;97721.67;;;9.09;54.71
50592;BME280;36548;50.506;30.834;2023-02-21T05:52:32;97722.37;;;9.47;54.54
50592;BME280;36548;50.506;30.834;2023-02-21T05:53:41;97740.38;;;9.81;54.33
50592;BME280;36548;50.506;30.834;2023-02-21T05:54:50;97735.03;;;10.07;54.51
50592;BME280;36548;50.506;30.834;2023-02-21T05:55:59;97735.03;;;10.07;52.76
50592;BME280;36548;50.506;30.834;2023-02-21T05:57:08;97723.55;;;10.23;52.40
50592;BME280;36548;50.506;30.834;2023-02-21T05:58:18;97733.82;;;10.28;51.34
50592;BME280;36548;50.506;30.834;2023-02-21T05:59:27;97733.08;;;10.44;51.77
50592;BME280;36548;50.506;30.834;2023-02-21T06:00:36;97729.53;;;10.35;50.99
50592;BME280;36548;50.506;30.834;2023-02-21T06:01:46;97737.08;;;10.39;51.72
50592;BME280;36548;50.506;30.834;2023-02-21T06:02:55;97723.38;;;10.43;51.56
50592;BME280;36548;50.506;30.834;2023-02-21T06:04:06;97731.92;;;10.20;50.77
50592;BME280;36548;50.506;30.834;2023-02-21T06:05:15;97729.19;;;10.12;51.64
50592;BME280;36548;50.506;30.834;2023-02-21T06:06:25;97737.77;;;10.15;51.62
50592;BME280;36548;50.506;30.834;2023-02-21T06:07:35;97749.64;;;10.13;52.03
50592;BME280;36548;50.506;30.834;2023-02-21T06:08:46;97743.23;;;10.32;52.18
50592;BME280;36548;50.506;30.834;2023-02-21T06:09:56;97748.14;;;10.36;51.16
50592;BME280;36548;50.506;30.834;2023-02-21T06:11:06;97750.66;;;10.38;50.85
50592;BME280;36548;50.506;30.834;2023-02-21T06:12:14;97754.54;;;10.44;50.94
50592;BME280;36548;50.506;30.834;2023-02-21T06:13:24;97754.12;;;10.30;50.53
50592;BME280;36548;50.506;30.834;2023-02-21T06:14:33;97740.88;;;10.29;50.76
50592;BME280;36548;50.506;30.834;2023-02-21T06:15:43;97750.02;;;10.18;50.45
50592;BME280;36548;50.506;30.834;2023-02-21T06:16:59;97748.51;;;10.42;51.62
50592;BME280;36548;50.506;30.834;2023-02-21T06:18:12;97757.47;;;10.06;50.94
50592;BME280;36548;50.506;30.834;2023-02-21T06:19:22;97764.11;;;9.76;51.24
50592;BME280;36548;50.506;30.834;2023-02-21T06:20:33;97751.98;;;9.89;51.92
50592;BME280;36548;50.506;30.834;2023-02-21T06:21:42;97755.75;;;9.97;52.10
50592;BME280;36548;50.506;30.834;2023-02-21T06:22:57;97760.20;;;10.14;52.52
50592;BME280;36548;50.506;30.834;2023-02-21T06:24:07;97756.30;;;9.82;52.04
50592;BME280;36548;50.506;30.834;2023-02-21T06:25:17;97760.91;;;9.72;52.65
50592;BME280;36548;50.506;30.834;2023-02-21T06:26:27;97773.77;;;9.68;52.75
50592;BME280;36548;50.506;30.834;2023-02-21T06:27:36;97763.29;;;9.57;52.74
50592;BME280;36548;50.506;30.834;2023-02-21T06:28:46;97759.78;;;9.57;52.53
50592;BME280;36548;50.506;30.834;2023-02-21T06:29:55;97760.54;;;9.49;52.96
50592;BME280;36548;50.506;30.834;2023-02-21T06:31:05;97765.34;;;9.45;53.02
50592;BME280;36548;50.506;30.834;2023-02-21T06:32:14;97771.33;;;9.39;53.50
50592;BME280;36548;50.506;30.834;2023-02-21T06:33:23;97769.05;;;9.44;53.64
50592;BME280;36548;50.506;30.834;2023-02-21T06:34:39;97762.39;;;9.48;53.22
50592;BME280;36548;50.506;30.834;2023-02-21T06:35:47;97772.14;;;9.21;53.86
50592;BME280;36548;50.506;30.834;2023-02-21T06:36:57;97776.36;;;9.24;54.43
50592;BME280;36548;50.506;30.834;2023-02-21T06:38:06;97779.16;;;9.04;54.04
50592;BME280;36548;50.506;30.834;2023-02-21T06:39:15;97773.05;;;8.94;54.73
50592;BME280;36548;50.506;30.834;2023-02-21T06:40:25;97769.81;;;8.91;54.85
50592;BME280;36548;50.506;30.834;2023-02-21T06:41:34;97777.98;;;8.89;54.83
50592;BME280;36548;50.506;30.834;2023-02-21T06:42:49;97765.44;;;8.90;54.89
50592;BME280;36548;50.506;30.834;2023-02-21T06:43:58;97769.31;;;8.77;55.17
50592;BME280;36548;50.506;30.834;2023-02-21T06:45:08;97780.92;;;8.68;55.05
50592;BME280;36548;50.506;30.834;2023-02-21T06:46:28;97777.28;;;8.59;55.78
50592;BME280;36548;50.506;30.834;2023-02-21T06:47:36;97787.48;;;8.46;56.11
50592;BME280;36548;50.506;30.834;2023-02-21T06:48:46;97786.50;;;8.37;56.26
50592;BME280;36548;50.506;30.834;2023-02-21T06:49:55;97786.95;;;8.23;56.58
50592;BME280;36548;50.506;30.834;2023-02-21T06:51:06;97791.61;;;8.21;57.01
50592;BME280;36548;50.506;30.834;2023-02-21T06:52:17;97784.72;;;8.18;57.19
50592;BME280;36548;50.506;30.834;2023-02-21T06:53:27;97785.72;;;8.07;57.39
50592;BME280;36548;50.506;30.834;2023-02-21T06:54:36;97795.02;;;8.03;57.73
50592;BME280;36548;50.506;30.834;2023-02-21T06:55:45;97793.61;;;7.99;58.00
50592;BME280;36548;50.506;30.834;2023-02-21T06:56:55;97794.05;;;7.94;58.38
50592;BME280;36548;50.506;30.834;2023-02-21T06:58:05;97798.14;;;7.89;58.30
50592;BME280;36548;50.506;30.834;2023-02-21T06:59:14;97790.81;;;7.91;58.45
50592;BME280;36548;50.506;30.834;2023-02-21T07:00:23;97796.45;;;7.88;58.64
50592;BME280;36548;50.506;30.834;2023-02-21T07:01:34;97790.13;;;7.89;58.77
50592;BME280;36548;50.506;30.834;2023-02-21T07:02:43;97788.28;;;7.89;58.60
50592;BME280;36548;50.506;30.834;2023-02-21T07:03:54;97791.55;;;7.73;58.97
50592;BME280;36548;50.506;30.834;2023-02-21T07:05:04;97782.95;;;7.79;59.13
50592;BME280;36548;50.506;30.834;2023-02-21T07:06:19;97787.45;;;7.89;59.05
50592;BME280;36548;50.506;30.834;2023-02-21T07:07:28;97775.38;;;7.75;59.04
50592;BME280;36548;50.506;30.834;2023-02-21T07:08:43;97779.31;;;7.80;59.36
50592;BME280;36548;50.506;30.834;2023-02-21T07:09:53;97785.64;;;7.70;59.46
50592;BME280;36548;50.506;30.834;2023-02-21T07:11:04;97772.84;;;7.63;59.51
50592;BME280;36548;50.506;30.834;2023-02-21T07:12:13;97775.50;;;7.63;59.88
50592;BME280;36548;50.506;30.834;2023-02-21T07:13:22;97779.87;;;7.64;59.95
50592;BME280;36548;50.506;30.834;2023-02-21T07:14:31;97776.23;;;7.56;60.08
50592;BME280;36548;50.506;30.834;2023-02-21T07:15:40;97771.58;;;7.58;60.33
50592;BME280;36548;50.506;30.834;2023-02-21T07:16:55;97767.52;;;7.73;60.14
50592;BME280;36548;50.506;30.834;2023-02-21T07:18:04;97770.16;;;7.63;60.03
50592;BME280;36548;50.506;30.834;2023-02-21T07:19:13;97777.92;;;7.57;60.40
50592;BME280;36548;50.506;30.834;2023-02-21T07:20:23;97771.03;;;7.44;60.33
50592;BME280;36548;50.506;30.834;2023-02-21T07:21:32;97766.09;;;7.30;60.74
50592;BME280;36548;50.506;30.834;2023-02-21T07:22:41;97774.25;;;7.38;61.02